Time;durP1;ratioP1;P1;durP2;ratioP2;P2;SDS_P1;SDS_P2;PMS_P1;PMS_P2;Temp;Humidity;BMP_temperature;BMP_pressure;BME280_temperature;BME280_humidity;BME280_pressure;Samples;Min_cycle;Max_cycle;Signal;HPM_P1;HPM_P2
2022/08/23 00:01:30;;;;;;;;;;;;;;;20.77;63.88;100424.53;5004961;28;1957;-82
2022/08/23 00:03:57;;;;;;;;;;;;;;;20.77;63.90;100427.31;5018089;28;825;-81
2022/08/23 00:06:22;;;;;;;;;;;;;;;20.76;63.88;100426.50;5001909;28;1272;-81
2022/08/23 00:08:48;;;;;;;;;;;;;;;20.75;63.50;100419.34;5001159;28;1228;-82
2022/08/23 00:11:28;;;;;;;;;;;;;;;20.77;63.39;100432.88;5019580;28;868;-81
2022/08/23 00:13:53;;;;;;;;;;;;;;;20.80;63.74;100423.03;5001355;28;1377;-82
2022/08/23 00:16:19;;;;;;;;;;;;;;;20.81;63.78;100433.00;4994965;28;1811;-82
2022/08/23 00:18:44;;;;;;;;;;;;;;;20.79;63.80;100430.56;4999696;28;1743;-81
2022/08/23 00:21:10;;;;;;;;;;;;;;;20.76;63.85;100426.50;4982475;28;1871;-82
2022/08/23 00:23:36;;;;;;;;;;;;;;;20.74;64.23;100425.25;4982386;28;1251;-82
2022/08/23 00:26:01;;;;;;;;;;;;;;;20.74;64.19;100426.06;5000353;28;857;-82
2022/08/23 00:28:27;;;;;;;;;;;;;;;20.74;64.09;100423.28;5000937;28;1366;-82
2022/08/23 00:30:52;;;;;;;;;;;;;;;20.75;63.80;100416.56;4998366;28;1467;-81
2022/08/23 00:33:17;;;;;;;;;;;;;;;20.74;64.06;100417.72;4985607;28;1418;-82
2022/08/23 00:35:42;;;;;;;;;;;;;;;20.73;63.82;100420.84;5008870;28;1115;-82
2022/08/23 00:38:09;;;;;;;;;;;;;;;20.71;63.99;100417.59;4983466;28;1525;-82
2022/08/23 00:40:34;;;;;;;;;;;;;;;20.73;64.27;100416.09;4984385;28;1229;-82
2022/08/23 00:48:43;;;;;;;;;;;;;;;20.64;64.18;100423.75;5010443;28;1244;-82
2022/08/23 00:51:11;;;;;;;;;;;;;;;20.64;64.57;100418.19;4981465;28;1193;-82
2022/08/23 00:53:39;;;;;;;;;;;;;;;20.62;64.42;100425.25;4998091;28;1222;-82
2022/08/23 00:56:06;;;;;;;;;;;;;;;20.63;65.00;100422.13;4981279;28;1344;-82
2022/08/23 00:58:31;;;;;;;;;;;;;;;20.63;64.94;100415.75;4981174;28;1244;-81
2022/08/23 01:00:58;;;;;;;;;;;;;;;20.60;64.60;100417.25;4996826;28;1902;-82
2022/08/23 01:03:25;;;;;;;;;;;;;;;20.60;64.25;100420.03;5000231;28;1185;-81
2022/08/23 01:06:02;;;;;;;;;;;;;;;20.60;63.62;100422.00;5017472;28;1385;-82
2022/08/23 01:08:30;;;;;;;;;;;;;;;20.59;64.47;100425.94;5016475;28;1366;-82
2022/08/23 01:10:58;;;;;;;;;;;;;;;20.58;64.56;100424.34;5018581;28;814;-81
2022/08/23 01:13:28;;;;;;;;;;;;;;;20.60;64.01;100428.38;5018558;28;936;-82
2022/08/23 01:15:56;;;;;;;;;;;;;;;20.58;64.95;100430.72;5016449;28;1801;-82
2022/08/23 01:18:23;;;;;;;;;;;;;;;20.61;64.56;100423.63;4999016;28;1226;-82
2022/08/23 01:21:09;;;;;;;;;;;;;;;20.58;64.17;100429.91;4980851;28;1890;-82
2022/08/23 01:23:40;;;;;;;;;;;;;;;20.63;64.05;100432.44;4999275;28;1285;-82
2022/08/23 01:26:06;;;;;;;;;;;;;;;20.60;63.98;100433.94;5017358;28;1232;-83
2022/08/23 01:28:32;;;;;;;;;;;;;;;20.61;64.56;100427.22;5018548;28;1211;-82
2022/08/23 01:30:57;;;;;;;;;;;;;;;20.60;64.02;100433.13;5018376;28;830;-82
2022/08/23 01:33:22;;;;;;;;;;;;;;;20.59;64.29;100429.53;5000339;28;1560;-83
2022/08/23 01:35:50;;;;;;;;;;;;;;;20.60;64.20;100436.72;4979733;28;989;-83
2022/08/23 01:38:15;;;;;;;;;;;;;;;20.60;64.16;100435.91;4980044;28;1220;-82
2022/08/23 01:40:41;;;;;;;;;;;;;;;20.59;64.33;100442.63;4979502;28;1953;-82
2022/08/23 01:43:07;;;;;;;;;;;;;;;20.58;64.44;100429.91;4978293;28;1291;-82
2022/08/23 01:45:32;;;;;;;;;;;;;;;20.57;64.57;100434.66;4979939;28;789;-81
2022/08/23 01:47:58;;;;;;;;;;;;;;;20.56;64.50;100429.44;4994667;28;1361;-83
2022/08/23 01:50:23;;;;;;;;;;;;;;;20.57;64.67;100428.28;4996109;28;1359;-82
2022/08/23 01:52:49;;;;;;;;;;;;;;;20.57;64.79;100429.09;5012725;28;1171;-82
2022/08/23 01:55:14;;;;;;;;;;;;;;;20.55;64.54;100428.63;4998969;28;805;-82
2022/08/23 01:57:40;;;;;;;;;;;;;;;20.54;64.90;100427.00;4997790;28;1291;-82
2022/08/23 02:00:06;;;;;;;;;;;;;;;20.50;65.51;100426.06;4998354;28;884;-82
2022/08/23 02:02:31;;;;;;;;;;;;;;;20.51;65.17;100429.66;4980473;28;1961;-82
2022/08/23 02:04:56;;;;;;;;;;;;;;;20.47;65.10;100426.78;4980359;28;1478;-82
2022/08/23 02:07:25;;;;;;;;;;;;;;;20.47;65.48;100429.56;4996353;28;1225;-82
2022/08/23 02:09:50;;;;;;;;;;;;;;;20.46;65.39;100422.38;4998106;28;1094;-82
2022/08/23 02:12:15;;;;;;;;;;;;;;;20.49;65.37;100430.03;4997701;28;928;-82
2022/08/23 02:14:41;;;;;;;;;;;;;;;20.50;65.49;100419.72;4998188;28;1032;-83
2022/08/23 02:17:06;;;;;;;;;;;;;;;20.49;65.53;100424.47;4997974;28;817;-82
2022/08/23 02:19:32;;;;;;;;;;;;;;;20.48;65.48;100424.81;4997528;28;1312;-82
2022/08/23 02:21:57;;;;;;;;;;;;;;;20.47;65.62;100418.44;5004322;28;1926;-82
2022/08/23 02:24:23;;;;;;;;;;;;;;;20.44;66.48;100429.44;4998688;28;1209;-82
2022/08/23 02:26:50;;;;;;;;;;;;;;;20.41;65.85;100425.41;4998666;28;1024;-82
2022/08/23 02:29:17;;;;;;;;;;;;;;;20.43;65.92;100428.63;4998699;28;1190;-81
2022/08/23 02:31:43;;;;;;;;;;;;;;;20.42;66.08;100432.56;4998345;28;1350;-82
2022/08/23 02:34:10;;;;;;;;;;;;;;;20.36;67.50;100426.44;4998807;28;821;-83
2022/08/23 02:36:35;;;;;;;;;;;;;;;20.20;69.54;100428.25;4999254;28;916;-82
2022/08/23 02:39:00;;;;;;;;;;;;;;;20.10;70.32;100439.81;4983594;28;1594;-82
2022/08/23 02:41:26;;;;;;;;;;;;;;;20.09;70.14;100432.63;5008503;28;1874;-82
2022/08/23 02:43:52;;;;;;;;;;;;;;;20.07;70.29;100434.16;5017227;28;1328;-82
2022/08/23 02:46:17;;;;;;;;;;;;;;;20.06;70.89;100433.34;5019181;28;1027;-82
2022/08/23 02:48:42;;;;;;;;;;;;;;;19.99;70.77;100428.34;5017634;28;1291;-82
2022/08/23 02:51:07;;;;;;;;;;;;;;;20.01;71.11;100428.00;5017917;28;1191;-81
2022/08/23 02:53:33;;;;;;;;;;;;;;;20.02;72.68;100429.63;5014256;28;1315;-81
2022/08/23 02:55:58;;;;;;;;;;;;;;;19.99;73.10;100425.56;4996917;28;1178;-82
2022/08/23 02:58:24;;;;;;;;;;;;;;;20.00;73.72;100424.41;4980784;28;1217;-82
2022/08/23 03:00:50;;;;;;;;;;;;;;;19.99;73.74;100425.56;4980371;28;1957;-83
2022/08/23 03:03:16;;;;;;;;;;;;;;;19.97;74.89;100427.09;4997333;28;826;-83
2022/08/23 03:05:42;;;;;;;;;;;;;;;20.00;74.34;100423.59;4997399;28;1036;-82
2022/08/23 03:08:07;;;;;;;;;;;;;;;20.03;73.25;100420.13;5005333;28;1402;-82
2022/08/23 03:10:32;;;;;;;;;;;;;;;20.06;72.13;100421.44;5019399;28;1032;-82
2022/08/23 03:12:57;;;;;;;;;;;;;;;20.07;71.62;100421.09;5019750;28;1271;-83
2022/08/23 03:15:22;;;;;;;;;;;;;;;20.09;71.03;100417.94;5019808;28;1251;-82
2022/08/23 03:17:48;;;;;;;;;;;;;;;20.07;71.94;100418.31;5019646;28;1224;-82
2022/08/23 03:20:13;;;;;;;;;;;;;;;20.04;70.79;100419.00;5019144;28;1169;-82
2022/08/23 03:22:39;;;;;;;;;;;;;;;20.07;70.61;100414.72;4997608;28;1910;-82
2022/08/23 03:25:04;;;;;;;;;;;;;;;20.08;69.93;100416.31;4979992;28;1630;-82
2022/08/23 03:27:30;;;;;;;;;;;;;;;20.09;69.83;100424.31;4980514;28;1648;-83
2022/08/23 03:29:55;;;;;;;;;;;;;;;20.12;69.61;100426.41;4982144;28;881;-82
2022/08/23 03:32:20;;;;;;;;;;;;;;;20.06;72.71;100424.22;4982211;28;992;-82
2022/08/23 03:34:45;;;;;;;;;;;;;;;19.93;74.64;100435.28;4981842;28;1490;-82
2022/08/23 03:37:11;;;;;;;;;;;;;;;19.86;76.68;100431.47;4999377;28;1476;-81
2022/08/23 03:39:36;;;;;;;;;;;;;;;19.85;77.46;100430.66;4998621;28;1408;-83
2022/08/23 03:42:01;;;;;;;;;;;;;;;19.87;76.25;100435.88;4999229;28;1951;-82
2022/08/23 03:44:26;;;;;;;;;;;;;;;19.83;77.37;100437.69;4998961;28;1203;-82
2022/08/23 03:46:52;;;;;;;;;;;;;;;19.74;78.71;100443.34;5001233;28;1294;-82
2022/08/23 03:49:18;;;;;;;;;;;;;;;19.74;78.69;100443.34;4991764;28;1504;-83
2022/08/23 03:51:43;;;;;;;;;;;;;;;19.70;76.90;100439.66;5000829;28;1257;-82
2022/08/23 03:54:08;;;;;;;;;;;;;;;19.72;77.18;100442.91;5000211;28;845;-83
2022/08/23 03:56:35;;;;;;;;;;;;;;;19.67;78.06;100436.72;4999290;28;998;-81
2022/08/23 03:59:03;;;;;;;;;;;;;;;19.59;78.55;100438.44;4999458;28;1216;-82
2022/08/23 04:01:28;;;;;;;;;;;;;;;19.54;77.78;100441.44;4998403;28;1894;-82
2022/08/23 04:03:53;;;;;;;;;;;;;;;19.55;77.32;100446.66;4983201;28;1401;-82
2022/08/23 04:06:18;;;;;;;;;;;;;;;19.53;78.03;100448.16;5000683;28;1059;-82
2022/08/23 04:08:44;;;;;;;;;;;;;;;19.44;78.86;100452.94;4999858;28;1240;-81
2022/08/23 04:11:11;;;;;;;;;;;;;;;19.43;78.78;100451.31;4999957;28;1075;-82
2022/08/23 04:13:37;;;;;;;;;;;;;;;19.47;77.92;100463.38;5000384;28;849;-81
2022/08/23 04:16:03;;;;;;;;;;;;;;;19.52;78.10;100460.41;4999786;28;1712;-81
2022/08/23 04:18:30;;;;;;;;;;;;;;;19.54;75.01;100460.88;5010028;28;1289;-82
2022/08/23 04:20:57;;;;;;;;;;;;;;;19.59;75.62;100457.88;5018743;28;1878;-81
2022/08/23 04:23:23;;;;;;;;;;;;;;;19.49;76.37;100459.13;5018716;28;1436;-82
2022/08/23 04:25:48;;;;;;;;;;;;;;;19.54;75.12;100463.66;5019206;28;893;-82
2022/08/23 04:28:13;;;;;;;;;;;;;;;19.55;76.31;100460.53;5018119;28;1204;-82
2022/08/23 04:30:39;;;;;;;;;;;;;;;19.49;78.46;100461.06;5006921;28;1809;-82
2022/08/23 04:33:04;;;;;;;;;;;;;;;19.38;78.32;100460.69;4997181;28;1059;-82
2022/08/23 04:35:29;;;;;;;;;;;;;;;19.38;79.25;100473.75;5018257;28;1454;-81
2022/08/23 04:37:54;;;;;;;;;;;;;;;19.23;80.98;100472.38;5019634;28;1299;-82
2022/08/23 04:43:03;;;;;;;;;;;;;;;19.21;78.97;100477.47;5018077;28;1963;-82
2022/08/23 04:45:30;;;;;;;;;;;;;;;19.09;78.55;100469.06;5000169;28;1329;-81
2022/08/23 04:47:55;;;;;;;;;;;;;;;19.06;78.90;100481.66;5018174;28;1239;-83
2022/08/23 04:50:20;;;;;;;;;;;;;;;19.03;80.24;100476.78;5019749;28;794;-82
2022/08/23 04:52:46;;;;;;;;;;;;;;;18.99;81.16;100481.38;5019855;28;790;-82
2022/08/23 04:55:12;;;;;;;;;;;;;;;18.90;81.19;100475.88;5019917;28;802;-81
2022/08/23 04:57:37;;;;;;;;;;;;;;;19.00;79.96;100483.00;5011826;28;1398;-81
2022/08/23 05:00:02;;;;;;;;;;;;;;;19.02;78.80;100491.81;5019327;28;1166;-81
2022/08/23 05:02:27;;;;;;;;;;;;;;;19.00;78.55;100491.31;5026603;28;1929;-81
2022/08/23 05:04:53;;;;;;;;;;;;;;;18.87;79.45;100497.97;5022817;28;1392;-82
2022/08/23 05:07:18;;;;;;;;;;;;;;;18.94;78.55;100494.66;5021867;28;1278;-82
2022/08/23 05:09:43;;;;;;;;;;;;;;;18.88;79.41;100502.34;5021635;28;813;-81
2022/08/23 05:12:08;;;;;;;;;;;;;;;18.76;80.65;100505.84;5011078;28;1430;-82
2022/08/23 05:14:33;;;;;;;;;;;;;;;18.79;82.10;100504.38;5020674;28;1019;-81
2022/08/23 05:16:58;;;;;;;;;;;;;;;18.84;81.51;100496.66;5020452;28;814;-82
2022/08/23 05:19:24;;;;;;;;;;;;;;;18.84;79.54;100509.72;5021705;28;1229;-82
2022/08/23 05:21:49;;;;;;;;;;;;;;;18.72;80.14;100504.88;5022655;28;1947;-83
2022/08/23 05:24:14;;;;;;;;;;;;;;;18.77;81.45;100512.22;5021683;28;921;-83
2022/08/23 05:26:39;;;;;;;;;;;;;;;18.75;81.20;100515.31;5014556;28;1595;-83
2022/08/23 05:29:04;;;;;;;;;;;;;;;18.88;81.80;100516.22;5021480;28;1284;-83
2022/08/23 05:31:30;;;;;;;;;;;;;;;18.84;81.02;100512.47;5023010;28;949;-83
2022/08/23 05:33:55;;;;;;;;;;;;;;;18.87;79.98;100515.41;5021797;28;935;-83
2022/08/23 05:36:21;;;;;;;;;;;;;;;18.89;78.69;100526.16;5022748;28;1284;-83
2022/08/23 05:38:47;;;;;;;;;;;;;;;18.97;80.93;100522.50;5020136;28;1648;-82
2022/08/23 05:41:13;;;;;;;;;;;;;;;18.98;80.07;100524.13;5006437;28;1952;-82
2022/08/23 05:43:38;;;;;;;;;;;;;;;19.01;80.52;100522.66;4985803;28;1439;-82
2022/08/23 05:46:06;;;;;;;;;;;;;;;18.98;79.95;100517.78;5003521;28;790;-83
2022/08/23 05:48:32;;;;;;;;;;;;;;;19.05;81.89;100521.66;5002402;28;1304;-83
2022/08/23 05:51:06;;;;;;;;;;;;;;;19.07;80.39;100516.56;4985855;28;1207;-83
2022/08/23 05:53:31;;;;;;;;;;;;;;;19.02;82.17;100524.28;4987653;28;1408;-83
2022/08/23 05:56:06;;;;;;;;;;;;;;;19.02;83.21;100527.88;4999119;28;1172;-82
2022/08/23 05:58:31;;;;;;;;;;;;;;;19.00;82.29;100523.81;5020192;28;1464;-83
2022/08/23 06:00:56;;;;;;;;;;;;;;;19.00;81.71;100527.38;5018792;28;1955;-83
2022/08/23 06:03:21;;;;;;;;;;;;;;;19.02;82.88;100518.75;5017245;28;988;-83
2022/08/23 06:05:47;;;;;;;;;;;;;;;18.93;82.26;100520.75;5015991;28;1462;-83
2022/08/23 06:08:12;;;;;;;;;;;;;;;18.84;81.54;100529.13;4976783;28;1442;-83
2022/08/23 06:10:37;;;;;;;;;;;;;;;18.86;82.80;100533.19;4989575;28;1151;-83
2022/08/23 06:13:03;;;;;;;;;;;;;;;18.90;81.22;100544.41;4999005;28;865;-83
2022/08/23 06:15:28;;;;;;;;;;;;;;;18.93;81.79;100542.94;4997769;28;1458;-83
2022/08/23 06:17:53;;;;;;;;;;;;;;;19.02;81.87;100538.16;4981277;28;1294;-83
2022/08/23 06:20:18;;;;;;;;;;;;;;;19.06;80.68;100536.31;4999263;28;1462;-83
2022/08/23 06:22:43;;;;;;;;;;;;;;;19.04;83.18;100545.00;5007678;28;1886;-83
2022/08/23 06:25:08;;;;;;;;;;;;;;;19.10;82.44;100551.97;4998941;28;901;-83
2022/08/23 06:27:34;;;;;;;;;;;;;;;19.11;82.73;100542.50;4998846;28;1283;-83
2022/08/23 06:29:59;;;;;;;;;;;;;;;19.12;82.05;100541.34;4999179;28;683;-83
2022/08/23 06:32:24;;;;;;;;;;;;;;;19.08;83.29;100543.16;4981291;28;897;-83
2022/08/23 06:34:49;;;;;;;;;;;;;;;19.11;84.33;100545.28;4998937;28;1434;-83
2022/08/23 06:37:14;;;;;;;;;;;;;;;19.13;83.23;100548.53;4982020;28;1289;-83
2022/08/23 06:39:40;;;;;;;;;;;;;;;19.20;84.59;100550.78;4981488;28;1346;-83
2022/08/23 06:42:10;;;;;;;;;;;;;;;19.27;85.01;100543.53;4999338;28;1960;-83
2022/08/23 06:44:35;;;;;;;;;;;;;;;19.35;84.14;100549.34;5002355;28;838;-83
2022/08/23 06:47:01;;;;;;;;;;;;;;;19.41;83.34;100545.22;4985264;28;1311;-83
2022/08/23 06:49:27;;;;;;;;;;;;;;;19.47;81.93;100541.09;5013107;28;1205;-83
2022/08/23 06:51:52;;;;;;;;;;;;;;;19.51;80.87;100540.09;5023332;28;943;-83
2022/08/23 06:54:22;;;;;;;;;;;;;;;19.56;79.08;100541.88;5023216;28;1052;-83
2022/08/23 06:56:48;;;;;;;;;;;;;;;19.62;75.53;100543.28;5024176;28;1072;-83
2022/08/23 06:59:13;;;;;;;;;;;;;;;19.71;75.14;100554.31;5023440;28;1313;-83
2022/08/23 07:01:41;;;;;;;;;;;;;;;19.75;74.99;100553.28;5015259;28;1960;-83
2022/08/23 07:04:07;;;;;;;;;;;;;;;19.76;75.09;100543.81;4986172;28;1216;-83
2022/08/23 07:06:33;;;;;;;;;;;;;;;19.76;74.54;100546.59;5003840;28;1184;-84
2022/08/23 07:08:58;;;;;;;;;;;;;;;19.78;74.59;100549.84;4994829;28;1333;-83
2022/08/23 07:11:24;;;;;;;;;;;;;;;19.81;74.30;100563.06;5005937;28;834;-83
2022/08/23 07:13:50;;;;;;;;;;;;;;;19.88;73.02;100563.31;4984243;28;1229;-83
2022/08/23 07:16:17;;;;;;;;;;;;;;;19.91;72.93;100561.78;5003135;28;1457;-83
2022/08/23 07:18:42;;;;;;;;;;;;;;;19.93;73.76;100554.75;5003174;28;1246;-83
2022/08/23 07:21:07;;;;;;;;;;;;;;;19.97;72.99;100563.22;5020127;28;1878;-83
2022/08/23 07:23:33;;;;;;;;;;;;;;;20.00;71.77;100560.56;5021347;28;992;-83
2022/08/23 07:26:02;;;;;;;;;;;;;;;20.05;71.28;100556.78;5021174;28;860;-83
2022/08/23 07:28:28;;;;;;;;;;;;;;;20.11;70.22;100557.34;5019757;28;1314;-83
2022/08/23 07:30:57;;;;;;;;;;;;;;;20.15;71.13;100556.34;5008334;28;1296;-83
2022/08/23 07:33:22;;;;;;;;;;;;;;;20.16;72.82;100563.50;4992811;28;1323;-83
2022/08/23 07:35:48;;;;;;;;;;;;;;;20.17;72.19;100569.88;5019387;28;834;-84
2022/08/23 07:38:14;;;;;;;;;;;;;;;20.17;72.15;100564.31;5021085;28;1293;-83
2022/08/23 07:40:39;;;;;;;;;;;;;;;20.19;72.85;100562.00;5020714;28;872;-83
2022/08/23 07:43:04;;;;;;;;;;;;;;;20.21;72.29;100554.16;5019338;28;1886;-83
2022/08/23 07:45:30;;;;;;;;;;;;;;;20.24;71.17;100570.97;5000299;28;1446;-83
2022/08/23 07:47:55;;;;;;;;;;;;;;;20.30;70.22;100568.75;5001408;28;1215;-83
2022/08/23 07:50:21;;;;;;;;;;;;;;;20.36;69.50;100567.41;4999741;28;796;-83
2022/08/23 07:52:46;;;;;;;;;;;;;;;20.38;70.62;100576.22;5001967;28;817;-83
2022/08/23 07:55:11;;;;;;;;;;;;;;;20.40;70.56;100568.34;4999792;28;1011;-82
2022/08/23 07:57:36;;;;;;;;;;;;;;;20.42;70.27;100566.03;5000417;28;1418;-83
2022/08/23 08:00:02;;;;;;;;;;;;;;;20.43;70.40;100567.66;5007191;28;1099;-83
2022/08/23 08:02:27;;;;;;;;;;;;;;;20.46;71.02;100574.50;5018658;28;1906;-83
2022/08/23 08:04:52;;;;;;;;;;;;;;;20.50;69.63;100575.44;5018614;28;1032;-83
2022/08/23 08:07:17;;;;;;;;;;;;;;;20.51;70.80;100579.81;5018445;28;1314;-83
2022/08/23 08:09:43;;;;;;;;;;;;;;;20.53;68.56;100570.00;5020704;28;909;-83
2022/08/23 08:12:09;;;;;;;;;;;;;;;20.58;68.78;100568.97;5015975;28;1476;-83
2022/08/23 08:14:35;;;;;;;;;;;;;;;20.67;67.44;100575.22;5006512;28;1217;-83
2022/08/23 08:17:00;;;;;;;;;;;;;;;20.75;67.70;100575.13;5000491;28;1012;-83
2022/08/23 08:19:25;;;;;;;;;;;;;;;20.80;68.41;100574.06;5000793;28;1228;-82
2022/08/23 08:21:50;;;;;;;;;;;;;;;20.82;69.08;100568.16;4982093;28;1898;-83
2022/08/23 08:24:16;;;;;;;;;;;;;;;20.82;70.13;100557.03;4982426;28;1311;-83
2022/08/23 08:26:41;;;;;;;;;;;;;;;20.84;69.68;100561.06;4999418;28;1644;-83
2022/08/23 08:29:09;;;;;;;;;;;;;;;20.87;68.03;100552.03;4982750;28;1452;-83
2022/08/23 08:31:36;;;;;;;;;;;;;;;20.89;67.39;100554.47;4999692;28;888;-83
2022/08/23 08:34:01;;;;;;;;;;;;;;;20.91;66.16;100558.53;4981809;28;1217;-83
2022/08/23 08:36:29;;;;;;;;;;;;;;;20.94;65.64;100557.81;4999970;28;694;-83
2022/08/23 08:38:55;;;;;;;;;;;;;;;20.97;66.04;100554.34;5000090;28;1185;-83
2022/08/23 08:41:24;;;;;;;;;;;;;;;21.03;65.21;100554.94;4978440;28;1956;-83
2022/08/23 08:43:49;;;;;;;;;;;;;;;21.08;63.67;100560.28;4997191;28;1717;-83
2022/08/23 08:46:21;;;;;;;;;;;;;;;21.12;64.57;100556.44;5019701;28;1011;-83
2022/08/23 08:48:48;;;;;;;;;;;;;;;21.13;65.14;100555.28;5018200;28;1437;-83
2022/08/23 08:51:19;;;;;;;;;;;;;;;21.18;64.91;100559.03;5014181;28;1801;-83
2022/08/23 08:53:47;;;;;;;;;;;;;;;21.22;63.24;100560.75;4990443;28;1403;-83
2022/08/23 08:56:23;;;;;;;;;;;;;;;21.29;64.59;100560.94;5000715;28;1047;-83
2022/08/23 08:58:53;;;;;;;;;;;;;;;21.36;64.89;100568.72;4998470;28;1328;-83
2022/08/23 09:01:20;;;;;;;;;;;;;;;21.34;64.36;100563.50;4999078;28;1910;-83
2022/08/23 09:03:45;;;;;;;;;;;;;;;21.38;64.27;100566.38;5001398;28;794;-83
2022/08/23 09:06:22;;;;;;;;;;;;;;;21.47;62.17;100567.88;5000376;28;1798;-83
2022/08/23 09:09:00;;;;;;;;;;;;;;;21.45;62.04;100561.03;4980667;28;1236;-83
2022/08/23 09:11:44;;;;;;;;;;;;;;;21.49;62.57;100571.13;4980863;28;1169;-83
2022/08/23 09:14:15;;;;;;;;;;;;;;;21.57;64.39;100565.75;4981057;28;1352;-83
2022/08/23 09:16:51;;;;;;;;;;;;;;;21.57;63.69;100554.63;4984126;28;1301;-83
2022/08/23 09:19:17;;;;;;;;;;;;;;;21.60;62.80;100556.72;4977487;28;1316;-83
2022/08/23 09:21:46;;;;;;;;;;;;;;;21.62;62.47;100552.38;4983896;28;1961;-83
2022/08/23 09:24:12;;;;;;;;;;;;;;;21.66;62.43;100552.50;4980140;28;1225;-83
2022/08/23 09:26:37;;;;;;;;;;;;;;;21.71;62.93;100555.03;4980623;28;1408;-83
2022/08/23 09:29:11;;;;;;;;;;;;;;;21.81;61.60;100558.13;4998280;28;1272;-83
2022/08/23 09:31:36;;;;;;;;;;;;;;;21.81;61.42;100560.09;4998312;28;1066;-82
2022/08/23 09:34:01;;;;;;;;;;;;;;;21.86;60.18;100562.66;4998072;28;1019;-83
2022/08/23 09:36:30;;;;;;;;;;;;;;;21.88;61.35;100560.31;4999828;28;1047;-83
2022/08/23 09:38:57;;;;;;;;;;;;;;;21.90;60.69;100558.78;5017846;28;1314;-83
2022/08/23 09:41:24;;;;;;;;;;;;;;;21.95;62.32;100556.94;5017556;28;1898;-83
2022/08/23 09:43:51;;;;;;;;;;;;;;;21.99;62.31;100546.69;5015814;28;1266;-83
2022/08/23 09:46:34;;;;;;;;;;;;;;;22.05;62.02;100548.06;5015921;28;1321;-83
2022/08/23 09:49:19;;;;;;;;;;;;;;;22.10;61.08;100556.19;5017116;28;1198;-83
2022/08/23 09:51:46;;;;;;;;;;;;;;;22.12;61.83;100543.47;5013790;28;1473;-83
2022/08/23 09:54:32;;;;;;;;;;;;;;;22.21;63.50;100544.13;5006061;28;1749;-83
2022/08/23 09:57:09;;;;;;;;;;;;;;;22.19;61.19;100543.69;4977770;28;850;-83
2022/08/23 09:59:43;;;;;;;;;;;;;;;22.20;60.51;100545.28;4976417;28;1408;-83
2022/08/23 10:02:29;;;;;;;;;;;;;;;22.35;58.04;100540.94;4976468;28;1906;-83
2022/08/23 10:04:56;;;;;;;;;;;;;;;22.36;58.92;100536.97;4976052;28;1289;-83
2022/08/23 10:07:28;;;;;;;;;;;;;;;22.41;58.37;100538.66;4979549;28;1779;-83
2022/08/23 10:09:53;;;;;;;;;;;;;;;22.38;58.53;100534.59;5014967;28;1332;-83
2022/08/23 10:12:18;;;;;;;;;;;;;;;22.47;60.48;100534.44;5016891;28;809;-83
2022/08/23 10:14:44;;;;;;;;;;;;;;;22.50;59.41;100534.53;5014925;28;965;-83
2022/08/23 10:17:36;;;;;;;;;;;;;;;22.54;59.55;100532.63;5016645;28;905;-83
2022/08/23 10:20:20;;;;;;;;;;;;;;;22.56;58.25;100537.84;5015482;28;1180;-83
2022/08/23 10:22:54;;;;;;;;;;;;;;;22.64;59.43;100534.06;5007041;28;1890;-83
2022/08/23 10:25:25;;;;;;;;;;;;;;;22.67;58.72;100530.56;4996890;28;783;-83
2022/08/23 10:31:14;;;;;;;;;;;;;;;22.81;59.57;100536.50;4997360;28;644;-83
2022/08/23 10:33:44;;;;;;;;;;;;;;;22.79;59.56;100529.69;4996184;28;1405;-83
2022/08/23 10:36:30;;;;;;;;;;;;;;;22.83;58.68;100520.22;4980905;28;1360;-83
2022/08/23 10:38:59;;;;;;;;;;;;;;;22.82;59.15;100531.75;4983234;28;1700;-83
2022/08/23 10:41:43;;;;;;;;;;;;;;;22.83;59.40;100523.03;5017622;28;1891;-83
2022/08/23 10:44:28;;;;;;;;;;;;;;;22.90;59.02;100520.38;5017159;28;921;-83
2022/08/23 10:47:04;;;;;;;;;;;;;;;22.87;61.26;100521.13;5016028;28;1404;-82
2022/08/23 10:49:30;;;;;;;;;;;;;;;22.88;58.02;100519.94;4999432;28;1383;-83
2022/08/23 10:51:56;;;;;;;;;;;;;;;22.94;58.72;100517.69;5017345;28;1071;-83
2022/08/23 10:54:33;;;;;;;;;;;;;;;23.07;56.38;100504.41;5004931;28;1472;-83
2022/08/23 10:57:00;;;;;;;;;;;;;;;23.13;56.85;100506.56;4960279;28;1559;-83
2022/08/23 10:59:26;;;;;;;;;;;;;;;23.09;56.77;100502.88;4976774;28;1220;-83
2022/08/23 11:02:01;;;;;;;;;;;;;;;23.12;59.32;100504.16;4977224;28;1874;-83
2022/08/23 11:04:32;;;;;;;;;;;;;;;23.18;57.35;100508.25;4977379;28;1008;-83
2022/08/23 11:06:59;;;;;;;;;;;;;;;23.20;58.30;100505.91;4978354;28;882;-83
2022/08/23 11:09:24;;;;;;;;;;;;;;;23.23;56.43;100511.56;4978621;28;1570;-83
2022/08/23 11:12:01;;;;;;;;;;;;;;;23.25;57.12;100505.63;4994288;28;1728;-83
2022/08/23 11:14:29;;;;;;;;;;;;;;;23.28;54.90;100510.47;4996602;28;1466;-83
2022/08/23 11:16:57;;;;;;;;;;;;;;;23.29;56.95;100501.75;5014898;28;1288;-83
2022/08/23 11:19:42;;;;;;;;;;;;;;;23.30;54.82;100503.38;5016357;28;1184;-83
2022/08/23 11:22:15;;;;;;;;;;;;;;;23.34;56.47;100495.03;5017271;28;1898;-83
2022/08/23 11:25:01;;;;;;;;;;;;;;;23.39;56.82;100494.78;5006024;28;1761;-83
2022/08/23 11:27:32;;;;;;;;;;;;;;;23.46;57.05;100489.31;4978784;28;1287;-83
2022/08/23 11:30:17;;;;;;;;;;;;;;;23.47;55.69;100488.16;4981299;28;1380;-83
2022/08/23 11:32:44;;;;;;;;;;;;;;;23.48;57.02;100484.16;4982097;28;1607;-83
2022/08/23 11:35:41;;;;;;;;;;;;;;;23.59;57.47;100488.03;4995283;28;1375;-83
2022/08/23 11:38:07;;;;;;;;;;;;;;;23.56;55.98;100494.34;4987262;28;1307;-83
2022/08/23 11:40:41;;;;;;;;;;;;;;;23.61;54.56;100485.66;4999181;28;869;-83
2022/08/23 11:43:11;;;;;;;;;;;;;;;23.67;55.69;100484.19;4997434;28;1878;-82
2022/08/23 11:45:36;;;;;;;;;;;;;;;23.73;54.71;100484.72;4999484;28;1008;-83
2022/08/23 11:48:10;;;;;;;;;;;;;;;23.75;53.74;100485.13;4986339;28;1789;-83
2022/08/23 11:50:51;;;;;;;;;;;;;;;23.77;55.09;100483.59;4996005;28;1275;-83
2022/08/23 11:53:34;;;;;;;;;;;;;;;23.80;54.00;100484.03;5017994;28;992;-83
2022/08/23 11:56:10;;;;;;;;;;;;;;;23.81;54.21;100482.88;5017048;28;1397;-83
2022/08/23 11:58:41;;;;;;;;;;;;;;;23.88;54.94;100467.03;5018637;28;1239;-83
2022/08/23 12:01:11;;;;;;;;;;;;;;;23.97;54.64;100475.19;5017383;28;1894;-82
2022/08/23 12:03:43;;;;;;;;;;;;;;;23.99;54.89;100478.38;5006277;28;1524;-83
2022/08/23 12:06:31;;;;;;;;;;;;;;;24.00;54.04;100475.22;5018213;28;837;-83
2022/08/23 12:09:00;;;;;;;;;;;;;;;24.06;55.01;100472.94;5017280;28;1282;-83
2022/08/23 12:11:45;;;;;;;;;;;;;;;24.21;52.58;100474.03;5016806;28;1701;-83
2022/08/23 12:14:29;;;;;;;;;;;;;;;24.19;53.63;100471.56;5017544;28;1042;-83
2022/08/23 12:16:54;;;;;;;;;;;;;;;24.20;54.86;100467.59;5017540;28;996;-83
2022/08/23 12:19:29;;;;;;;;;;;;;;;24.42;51.35;100469.59;5014846;28;1281;-83
2022/08/23 12:21:55;;;;;;;;;;;;;;;24.41;51.35;100465.19;4980973;28;1898;-83
2022/08/23 12:24:40;;;;;;;;;;;;;;;24.41;51.83;100465.19;4980211;28;1243;-83
2022/08/23 12:27:24;;;;;;;;;;;;;;;24.53;50.01;100466.97;4998436;28;1417;-83
2022/08/23 12:29:52;;;;;;;;;;;;;;;24.55;51.05;100467.41;4998272;28;1008;-83
2022/08/23 12:32:22;;;;;;;;;;;;;;;24.57;51.01;100464.25;4997459;28;862;-83
2022/08/23 12:34:51;;;;;;;;;;;;;;;24.59;51.18;100468.25;4998475;28;1020;-83
2022/08/23 12:37:20;;;;;;;;;;;;;;;24.66;50.83;100467.59;4994601;28;1723;-83
2022/08/23 12:39:48;;;;;;;;;;;;;;;24.66;51.85;100460.00;4978508;28;1000;-83
2022/08/23 12:42:16;;;;;;;;;;;;;;;24.68;51.77;100460.41;4978491;28;1969;-83
2022/08/23 12:44:43;;;;;;;;;;;;;;;24.76;52.29;100458.53;4962451;28;1237;-83
2022/08/23 12:47:13;;;;;;;;;;;;;;;24.81;50.62;100459.03;4977330;28;1199;-83
2022/08/23 12:49:39;;;;;;;;;;;;;;;24.93;51.57;100451.59;4984362;28;1756;-83
2022/08/23 12:52:10;;;;;;;;;;;;;;;24.99;50.55;100459.31;4998606;28;818;-83
2022/08/23 12:54:48;;;;;;;;;;;;;;;25.04;50.42;100449.75;4981498;28;1196;-83
2022/08/23 12:57:16;;;;;;;;;;;;;;;25.16;51.24;100453.16;4980556;28;1181;-83
2022/08/23 13:00:12;;;;;;;;;;;;;;;25.22;50.59;100460.03;4999216;28;1121;-83
2022/08/23 13:02:38;;;;;;;;;;;;;;;25.25;51.00;100452.88;5010250;28;1898;-83
2022/08/23 13:05:11;;;;;;;;;;;;;;;25.39;51.48;100449.41;5018257;28;1012;-83